Time;durP1;ratioP1;P1;durP2;ratioP2;P2;SDS_P1;SDS_P2;PMS_P1;PMS_P2;Temp;Humidity;BMP_temperature;BMP_pressure;BME280_temperature;BME280_humidity;BME280_pressure;Samples;Min_cycle;Max_cycle;Signal;HPM_P1;HPM_P2
2023/10/01 00:00:55;;;;;;;5.00;1.02;;;;;;;;;;2103668;28;20024;-62
2023/10/01 00:02:14;;;;;;;4.85;1.23;;;;;;;;;;2101605;28;20028;-63
2023/10/01 00:03:33;;;;;;;13.00;1.90;;;;;;;;;;2104370;28;20028;-63
2023/10/01 00:04:52;;;;;;;4.93;1.38;;;;;;;;;;2104359;28;20409;-63
2023/10/01 00:06:10;;;;;;;4.68;1.48;;;;;;;;;;2103771;28;20059;-64
2023/10/01 00:07:29;;;;;;;4.93;1.25;;;;;;;;;;2099873;28;20032;-63
2023/10/01 00:08:48;;;;;;;5.32;1.65;;;;;;;;;;2102957;28;20024;-63
2023/10/01 00:10:11;;;;;;;3.70;1.38;;;;;;;;;;2102963;28;20388;-63
2023/10/01 00:11:30;;;;;;;2.75;1.10;;;;;;;;;;2103285;28;20028;-63
2023/10/01 00:12:50;;;;;;;4.00;1.33;;;;;;;;;;2103458;28;20080;-63
2023/10/01 00:14:09;;;;;;;9.20;1.63;;;;;;;;;;2102406;28;20489;-63
2023/10/01 00:15:30;;;;;;;4.68;1.27;;;;;;;;;;2103777;28;20036;-63
2023/10/01 00:16:49;;;;;;;7.75;1.55;;;;;;;;;;2104085;28;20063;-62
2023/10/01 00:18:08;;;;;;;7.82;1.40;;;;;;;;;;2103291;28;20028;-63
2023/10/01 00:19:27;;;;;;;4.60;1.65;;;;;;;;;;2103447;28;20032;-63
2023/10/01 00:20:46;;;;;;;6.70;1.55;;;;;;;;;;2100369;28;20025;-63
2023/10/01 00:22:05;;;;;;;5.35;2.03;;;;;;;;;;2101853;28;20028;-63
2023/10/01 00:23:25;;;;;;;9.02;1.77;;;;;;;;;;2104471;28;20107;-63
2023/10/01 00:24:44;;;;;;;4.65;1.50;;;;;;;;;;2103776;28;20036;-63
2023/10/01 00:26:03;;;;;;;6.45;1.60;;;;;;;;;;2103582;28;21349;-63
2023/10/01 00:27:23;;;;;;;6.60;1.67;;;;;;;;;;2103939;28;20040;-63
2023/10/01 00:28:42;;;;;;;7.43;1.73;;;;;;;;;;2103871;28;20381;-63
2023/10/01 00:30:01;;;;;;;4.22;1.30;;;;;;;;;;2102805;28;20028;-63
2023/10/01 00:31:20;;;;;;;6.47;1.58;;;;;;;;;;2104439;28;20105;-63
2023/10/01 00:32:40;;;;;;;3.63;1.42;;;;;;;;;;2103246;28;20056;-63
2023/10/01 00:33:59;;;;;;;4.57;1.67;;;;;;;;;;2102519;28;20389;-63
2023/10/01 00:35:17;;;;;;;8.38;1.75;;;;;;;;;;2103031;28;20397;-63
2023/10/01 00:36:37;;;;;;;10.50;1.50;;;;;;;;;;2102039;28;20044;-63
2023/10/01 00:37:56;;;;;;;4.75;1.60;;;;;;;;;;2102983;28;20058;-63
2023/10/01 00:39:15;;;;;;;12.18;1.77;;;;;;;;;;2102601;28;20056;-63
2023/10/01 00:40:33;;;;;;;4.00;1.90;;;;;;;;;;2101840;28;21901;-63
2023/10/01 00:41:52;;;;;;;8.23;1.58;;;;;;;;;;2103351;28;20401;-63
2023/10/01 00:43:12;;;;;;;5.22;1.83;;;;;;;;;;2103792;28;20036;-63
2023/10/01 00:44:34;;;;;;;5.97;1.58;;;;;;;;;;2103889;28;20032;-63
2023/10/01 00:45:53;;;;;;;9.38;1.80;;;;;;;;;;2104076;28;20024;-61
2023/10/01 00:47:12;;;;;;;6.03;1.88;;;;;;;;;;2103228;28;20501;-63
2023/10/01 00:48:32;;;;;;;5.05;1.48;;;;;;;;;;2102954;28;20025;-63
2023/10/01 00:49:51;;;;;;;6.75;1.83;;;;;;;;;;2103692;28;20055;-62
2023/10/01 00:51:10;;;;;;;6.45;1.77;;;;;;;;;;2102993;28;20059;-63
2023/10/01 00:52:29;;;;;;;5.85;1.73;;;;;;;;;;2103256;28;20032;-63
2023/10/01 00:53:50;;;;;;;10.07;2.28;;;;;;;;;;2102251;28;20028;-63
2023/10/01 00:55:11;;;;;;;9.55;1.55;;;;;;;;;;2103183;28;20028;-63
2023/10/01 00:56:31;;;;;;;5.22;1.73;;;;;;;;;;2102975;28;20496;-63
2023/10/01 00:57:50;;;;;;;3.92;1.15;;;;;;;;;;2102587;28;20031;-63
2023/10/01 00:59:10;;;;;;;9.65;1.92;;;;;;;;;;2103689;28;20031;-65
2023/10/01 01:00:29;;;;;;;4.38;1.67;;;;;;;;;;2102083;28;20036;-63
2023/10/01 01:01:48;;;;;;;6.88;2.30;;;;;;;;;;2103955;28;20036;-63
2023/10/01 01:03:08;;;;;;;10.30;2.20;;;;;;;;;;2104756;28;20023;-63
2023/10/01 01:04:29;;;;;;;4.20;1.25;;;;;;;;;;2104277;28;20032;-63
2023/10/01 01:06:12;;;;;;;6.80;1.60;;;;;;;;;;2102647;28;20032;-65
2023/10/01 01:07:36;;;;;;;7.88;1.83;;;;;;;;;;2102503;28;20028;-63
2023/10/01 01:08:56;;;;;;;10.35;2.42;;;;;;;;;;2102600;28;20032;-63
2023/10/01 01:10:16;;;;;;;6.43;1.60;;;;;;;;;;2102953;28;20060;-63
2023/10/01 01:11:35;;;;;;;6.10;1.70;;;;;;;;;;2102197;28;20028;-64
2023/10/01 01:12:54;;;;;;;5.05;1.90;;;;;;;;;;2105556;28;20028;-63
2023/10/01 01:14:13;;;;;;;6.43;1.90;;;;;;;;;;2104497;28;20112;-63
2023/10/01 01:15:34;;;;;;;9.55;1.92;;;;;;;;;;2102889;28;20168;-63
2023/10/01 01:16:53;;;;;;;6.50;1.65;;;;;;;;;;2104970;28;20028;-63
2023/10/01 01:18:13;;;;;;;6.53;1.90;;;;;;;;;;2104443;28;20063;-63
2023/10/01 01:19:36;;;;;;;6.53;1.70;;;;;;;;;;2103411;28;20028;-63
2023/10/01 01:20:58;;;;;;;4.82;1.70;;;;;;;;;;2103762;28;20024;-63
2023/10/01 01:22:28;;;;;;;7.60;1.58;;;;;;;;;;2103514;28;20028;-63
2023/10/01 01:23:50;;;;;;;4.38;1.80;;;;;;;;;;2102444;28;20029;-63
2023/10/01 01:25:20;;;;;;;7.22;1.77;;;;;;;;;;2104904;28;20144;-63
2023/10/01 01:26:41;;;;;;;7.07;1.65;;;;;;;;;;2104140;28;20036;-63
2023/10/01 01:28:00;;;;;;;12.77;2.28;;;;;;;;;;2104002;28;20480;-63
2023/10/01 01:29:29;;;;;;;5.97;1.77;;;;;;;;;;2103514;28;20024;-63
2023/10/01 01:30:47;;;;;;;14.10;2.20;;;;;;;;;;2102643;28;20024;-63
2023/10/01 01:32:13;;;;;;;9.77;2.03;;;;;;;;;;2103116;28;20560;-63
2023/10/01 01:33:33;;;;;;;6.85;1.67;;;;;;;;;;2104113;28;20040;-63
2023/10/01 01:34:52;;;;;;;6.80;1.80;;;;;;;;;;2103264;28;20020;-63
2023/10/01 01:36:14;;;;;;;7.10;1.90;;;;;;;;;;2103293;28;20036;-63
2023/10/01 01:37:54;;;;;;;4.05;2.03;;;;;;;;;;2103892;28;20530;-63
2023/10/01 01:39:27;;;;;;;9.25;1.98;;;;;;;;;;2104558;28;20489;-63
2023/10/01 01:40:50;;;;;;;10.02;1.58;;;;;;;;;;2103304;28;20032;-63
2023/10/01 01:42:11;;;;;;;;;;;;;;;;;;2103442;28;20119;-63
2023/10/01 01:43:31;;;;;;;9.73;1.73;;;;;;;;;;2103472;28;19911;-63
2023/10/01 01:45:15;;;;;;;8.45;1.77;;;;;;;;;;2103844;28;20113;-63
2023/10/01 01:46:32;;;;;;;8.57;1.73;;;;;;;;;;2102946;28;20036;-63
2023/10/01 01:47:51;;;;;;;9.00;2.05;;;;;;;;;;2105099;28;20024;-63
2023/10/01 01:49:11;;;;;;;15.30;2.40;;;;;;;;;;2103356;28;20032;-63
2023/10/01 01:50:31;;;;;;;9.70;2.00;;;;;;;;;;2103023;28;20040;-63
2023/10/01 01:52:03;;;;;;;6.28;1.65;;;;;;;;;;2102683;28;20028;-63
2023/10/01 01:53:22;;;;;;;9.48;1.85;;;;;;;;;;2103598;28;20024;-63
2023/10/01 01:54:42;;;;;;;7.90;1.60;;;;;;;;;;2103614;28;20016;-63
2023/10/01 01:56:05;;;;;;;10.02;1.83;;;;;;;;;;2104189;28;20147;-63
2023/10/01 01:57:25;;;;;;;9.10;1.92;;;;;;;;;;2101585;28;20028;-63
2023/10/01 01:58:44;;;;;;;8.40;2.13;;;;;;;;;;2099325;28;20150;-63
2023/10/01 02:00:11;;;;;;;6.13;1.88;;;;;;;;;;2103822;28;20493;-63
2023/10/01 02:01:35;;;;;;;7.45;2.00;;;;;;;;;;2103444;28;20028;-63
2023/10/01 02:02:59;;;;;;;9.13;1.83;;;;;;;;;;2104179;28;20087;-64
2023/10/01 02:04:18;;;;;;;8.38;2.10;;;;;;;;;;2105155;28;20489;-64
2023/10/01 02:05:41;;;;;;;4.88;2.25;;;;;;;;;;2104790;28;20036;-63
2023/10/01 02:07:00;;;;;;;6.70;1.52;;;;;;;;;;2105802;28;20024;-63
2023/10/01 02:08:24;;;;;;;7.80;1.77;;;;;;;;;;2098321;28;20032;-63
2023/10/01 02:09:43;;;;;;;5.72;2.13;;;;;;;;;;2103784;28;20035;-63
2023/10/01 02:11:09;;;;;;;7.30;2.40;;;;;;;;;;2103598;28;20020;-63
2023/10/01 02:12:30;;;;;;;6.97;1.90;;;;;;;;;;2104328;28;20024;-63
2023/10/01 02:13:51;;;;;;;6.20;2.10;;;;;;;;;;2104198;28;20024;-63
2023/10/01 02:15:10;;;;;;;6.57;2.08;;;;;;;;;;2104497;28;20548;-63
2023/10/01 02:16:35;;;;;;;8.27;2.00;;;;;;;;;;2102723;28;20055;-63
2023/10/01 02:17:54;;;;;;;5.60;1.77;;;;;;;;;;2104299;28;20084;-63
2023/10/01 02:19:19;;;;;;;10.23;2.42;;;;;;;;;;2104904;28;20132;-63
2023/10/01 02:20:40;;;;;;;8.88;2.25;;;;;;;;;;2104238;28;20035;-63
2023/10/01 02:22:05;;;;;;;6.55;2.10;;;;;;;;;;2103840;28;20500;-63
2023/10/01 02:23:33;;;;;;;10.65;2.40;;;;;;;;;;2104897;28;20052;-63
2023/10/01 02:24:55;;;;;;;5.20;2.00;;;;;;;;;;2101290;28;20028;-63
2023/10/01 02:26:13;;;;;;;7.45;2.17;;;;;;;;;;2105373;28;20024;-63
2023/10/01 02:27:43;;;;;;;12.43;2.10;;;;;;;;;;2102125;28;20401;-63
2023/10/01 02:29:03;;;;;;;14.35;2.30;;;;;;;;;;2098442;28;20030;-63
2023/10/01 02:30:23;;;;;;;6.68;1.98;;;;;;;;;;2101163;28;20485;-63
2023/10/01 02:31:54;;;;;;;8.57;2.33;;;;;;;;;;2098532;28;20036;-63
2023/10/01 02:33:17;;;;;;;6.68;1.92;;;;;;;;;;2100045;28;20095;-63
2023/10/01 02:34:36;;;;;;;6.97;1.63;;;;;;;;;;2102309;28;20052;-63
2023/10/01 02:35:58;;;;;;;6.18;2.55;;;;;;;;;;2101524;28;20024;-63
2023/10/01 02:37:29;;;;;;;7.78;1.90;;;;;;;;;;2101610;28;20049;-63
2023/10/01 02:38:53;;;;;;;11.90;2.25;;;;;;;;;;2101338;28;20036;-63
2023/10/01 02:40:14;;;;;;;8.65;1.67;;;;;;;;;;2102959;28;20028;-63
2023/10/01 02:41:33;;;;;;;10.60;2.33;;;;;;;;;;2102958;28;20050;-63
2023/10/01 02:42:56;;;;;;;8.43;2.15;;;;;;;;;;2101430;28;20425;-63
2023/10/01 02:44:15;;;;;;;11.60;1.95;;;;;;;;;;2102628;28;20067;-63
2023/10/01 02:45:35;;;;;;;5.78;1.92;;;;;;;;;;2103115;28;20044;-63
2023/10/01 02:46:58;;;;;;;5.25;2.47;;;;;;;;;;2102267;28;20038;-63
2023/10/01 02:48:17;;;;;;;7.03;2.42;;;;;;;;;;2104260;28;20024;-62
2023/10/01 02:49:47;;;;;;;10.20;2.67;;;;;;;;;;2103996;28;20061;-63
2023/10/01 02:51:16;;;;;;;7.18;1.60;;;;;;;;;;2101854;28;20024;-63
2023/10/01 02:52:39;;;;;;;7.45;2.03;;;;;;;;;;2102605;28;20020;-63
2023/10/01 02:54:11;;;;;;;7.75;1.73;;;;;;;;;;2102256;28;20028;-63
2023/10/01 02:55:31;;;;;;;13.55;2.55;;;;;;;;;;2103347;28;20040;-65
2023/10/01 02:57:11;;;;;;;7.75;1.90;;;;;;;;;;2103512;28;20032;-62
2023/10/01 02:58:32;;;;;;;10.35;1.85;;;;;;;;;;2103217;28;20453;-63
2023/10/01 03:01:34;;;;;;;6.25;2.05;;;;;;;;;;2103574;28;20036;-63
2023/10/01 03:02:53;;;;;;;16.48;2.50;;;;;;;;;;2103063;28;20110;-64
2023/10/01 03:04:15;;;;;;;6.65;1.83;;;;;;;;;;2103399;28;20036;-63
2023/10/01 03:05:36;;;;;;;9.40;2.30;;;;;;;;;;2103438;28;20051;-63
2023/10/01 03:06:55;;;;;;;7.70;2.08;;;;;;;;;;2103484;28;20024;-63
2023/10/01 03:10:25;;;;;;;8.50;2.30;;;;;;;;;;2101911;28;20021;-63
2023/10/01 03:11:44;;;;;;;7.75;2.00;;;;;;;;;;2105356;28;20035;-63
2023/10/01 03:13:14;;;;;;;11.05;2.03;;;;;;;;;;2103656;28;20036;-63
2023/10/01 03:14:34;;;;;;;8.48;1.92;;;;;;;;;;2104393;28;20024;-63
2023/10/01 03:17:38;;;;;;;7.18;2.00;;;;;;;;;;2104330;28;20064;-63
2023/10/01 03:19:04;;;;;;;9.65;2.42;;;;;;;;;;2103018;28;20024;-64
2023/10/01 03:24:47;;;;;;;9.73;2.40;;;;;;;;;;2105113;28;20032;-63
2023/10/01 03:26:08;;;;;;;7.88;1.80;;;;;;;;;;2105163;28;20472;-63
2023/10/01 03:27:27;;;;;;;8.63;2.42;;;;;;;;;;2105373;28;20394;-64
2023/10/01 03:30:23;;;;;;;8.48;2.08;;;;;;;;;;2105524;28;20028;-63
2023/10/01 03:31:46;;;;;;;8.23;1.95;;;;;;;;;;2105956;28;20496;-63
2023/10/01 03:33:08;;;;;;;9.88;2.10;;;;;;;;;;2103033;28;20036;-65
2023/10/01 03:34:30;;;;;;;6.60;1.83;;;;;;;;;;2103545;28;20095;-63
2023/10/01 03:35:49;;;;;;;8.15;2.47;;;;;;;;;;2106283;28;21007;-63
2023/10/01 03:37:08;;;;;;;11.05;1.90;;;;;;;;;;2105460;28;20497;-63
2023/10/01 03:38:27;;;;;;;11.30;2.30;;;;;;;;;;2102155;28;20032;-63
2023/10/01 03:39:52;;;;;;;5.28;1.70;;;;;;;;;;2103381;28;20031;-63
2023/10/01 03:41:21;;;;;;;8.30;2.00;;;;;;;;;;2102347;28;20035;-63
2023/10/01 03:42:49;;;;;;;11.43;2.65;;;;;;;;;;2104190;28;20880;-63
2023/10/01 03:44:09;;;;;;;9.27;2.10;;;;;;;;;;2104937;28;20028;-63
2023/10/01 03:46:55;;;;;;;5.80;1.77;;;;;;;;;;2104035;28;20128;-63
2023/10/01 03:48:19;;;;;;;11.02;2.53;;;;;;;;;;2104197;28;20146;-64
2023/10/01 03:49:44;;;;;;;8.93;2.03;;;;;;;;;;2106980;28;20508;-63
2023/10/01 03:51:04;;;;;;;10.40;1.73;;;;;;;;;;2102551;28;21619;-63
2023/10/01 03:52:28;;;;;;;5.07;2.03;;;;;;;;;;2103775;28;20032;-63
2023/10/01 03:53:51;;;;;;;9.65;2.33;;;;;;;;;;2104523;28;20111;-63
2023/10/01 03:55:46;;;;;;;8.13;1.83;;;;;;;;;;2104472;28;20540;-63
2023/10/01 03:56:58;;;;;;;7.03;2.30;;;;;;;;;;2103892;28;20032;-64
2023/10/01 03:58:25;;;;;;;13.68;1.70;;;;;;;;;;2102570;28;20040;-63
2023/10/01 03:59:57;;;;;;;6.88;2.03;;;;;;;;;;2102025;28;20032;-64
2023/10/01 04:01:26;;;;;;;4.38;1.75;;;;;;;;;;2103232;28;20064;-63
2023/10/01 04:02:48;;;;;;;4.10;1.52;;;;;;;;;;2100543;28;20521;-64
2023/10/01 04:04:11;;;;;;;8.63;2.35;;;;;;;;;;2102372;28;20512;-64
2023/10/01 04:05:31;;;;;;;9.02;1.85;;;;;;;;;;2101303;28;20039;-64
2023/10/01 04:06:52;;;;;;;7.60;1.80;;;;;;;;;;2102667;28;20504;-63
2023/10/01 04:08:14;;;;;;;8.18;1.83;;;;;;;;;;2102067;28;20393;-63
2023/10/01 04:09:40;;;;;;;7.70;2.08;;;;;;;;;;2104552;28;20049;-63
2023/10/01 04:10:59;;;;;;;7.90;1.80;;;;;;;;;;2103902;28;20028;-63
2023/10/01 04:12:28;;;;;;;4.60;1.77;;;;;;;;;;2103967;28;20032;-63
2023/10/01 04:14:07;;;;;;;6.68;1.92;;;;;;;;;;2104896;28;20032;-63
2023/10/01 04:15:29;;;;;;;8.70;2.17;;;;;;;;;;2103479;28;20592;-63
2023/10/01 04:16:49;;;;;;;9.52;1.88;;;;;;;;;;2103986;28;20039;-63
2023/10/01 04:19:35;;;;;;;10.07;2.13;;;;;;;;;;2104556;28;20020;-63
2023/10/01 04:22:21;;;;;;;7.38;2.00;;;;;;;;;;2105263;28;20079;-64
2023/10/01 04:23:41;;;;;;;7.88;2.00;;;;;;;;;;2104386;28;20040;-64
2023/10/01 04:25:12;;;;;;;9.52;2.05;;;;;;;;;;2105033;28;20390;-63
2023/10/01 04:26:35;;;;;;;6.30;1.95;;;;;;;;;;2104580;28;20452;-63
2023/10/01 04:27:54;;;;;;;5.75;1.88;;;;;;;;;;2104573;28;21080;-63
2023/10/01 04:29:16;;;;;;;9.00;2.13;;;;;;;;;;2105258;28;20489;-63
2023/10/01 04:30:35;;;;;;;5.07;1.90;;;;;;;;;;2105307;28;20020;-63
2023/10/01 04:32:01;;;;;;;11.85;2.58;;;;;;;;;;2103740;28;20024;-63
2023/10/01 04:33:23;;;;;;;6.78;2.00;;;;;;;;;;2103585;28;20028;-63
2023/10/01 04:34:44;;;;;;;7.78;2.15;;;;;;;;;;2103893;28;20021;-64
2023/10/01 04:36:10;;;;;;;8.75;2.63;;;;;;;;;;2104760;28;20490;-63
2023/10/01 04:37:40;;;;;;;6.38;1.60;;;;;;;;;;2106222;28;20044;-63
2023/10/01 04:39:00;;;;;;;5.65;1.75;;;;;;;;;;2104885;28;20485;-64
2023/10/01 04:40:39;;;;;;;9.23;1.90;;;;;;;;;;2104686;28;20439;-64
2023/10/01 04:41:59;;;;;;;6.20;1.90;;;;;;;;;;2105050;28;20053;-63
2023/10/01 04:43:19;;;;;;;9.50;2.42;;;;;;;;;;2103474;28;20051;-63
2023/10/01 04:44:38;;;;;;;6.75;2.42;;;;;;;;;;2104979;28;20497;-63
2023/10/01 04:46:00;;;;;;;8.05;2.03;;;;;;;;;;2105907;28;20024;-64
2023/10/01 04:47:31;;;;;;;8.20;1.80;;;;;;;;;;2106280;28;20032;-64
2023/10/01 04:48:51;;;;;;;5.40;1.83;;;;;;;;;;2104710;28;20024;-64
2023/10/01 04:50:09;;;;;;;8.77;2.10;;;;;;;;;;2099544;28;20508;-64
2023/10/01 04:51:44;;;;;;;5.88;2.00;;;;;;;;;;2103804;28;20036;-64
2023/10/01 04:53:07;;;;;;;6.57;1.83;;;;;;;;;;2104602;28;20024;-63
2023/10/01 04:54:28;;;;;;;6.90;2.42;;;;;;;;;;2102252;28;20107;-61
2023/10/01 04:56:05;;;;;;;9.57;2.75;;;;;;;;;;2104808;28;20036;-64
2023/10/01 04:57:25;;;;;;;9.13;2.30;;;;;;;;;;2105064;28;20445;-64
2023/10/01 04:58:46;;;;;;;10.48;2.38;;;;;;;;;;2104779;28;20489;-64
2023/10/01 05:00:10;;;;;;;5.63;2.28;;;;;;;;;;2105320;28;20040;-64
2023/10/01 05:01:29;;;;;;;10.25;1.73;;;;;;;;;;2105891;28;20070;-64
2023/10/01 05:02:50;;;;;;;15.35;2.00;;;;;;;;;;2100822;28;20028;-64
2023/10/01 05:04:14;;;;;;;6.25;1.80;;;;;;;;;;2103123;28;20020;-64
2023/10/01 05:05:36;;;;;;;11.02;2.20;;;;;;;;;;2104597;28;20032;-63
2023/10/01 05:07:04;;;;;;;9.60;2.13;;;;;;;;;;2105486;28;20024;-64
2023/10/01 05:08:23;;;;;;;8.82;1.88;;;;;;;;;;2105207;28;20032;-64
2023/10/01 05:09:43;;;;;;;6.38;1.85;;;;;;;;;;2103831;28;20024;-64
2023/10/01 05:11:03;;;;;;;4.50;2.05;;;;;;;;;;2105561;28;20110;-64
2023/10/01 05:12:30;;;;;;;5.10;2.00;;;;;;;;;;2103898;28;20024;-64
2023/10/01 05:13:51;;;;;;;5.38;1.98;;;;;;;;;;2105456;28;20027;-64
2023/10/01 05:15:24;;;;;;;7.80;2.30;;;;;;;;;;2101748;28;20035;-63
2023/10/01 05:16:43;;;;;;;6.93;1.67;;;;;;;;;;2104962;28;20024;-63
2023/10/01 05:18:02;;;;;;;6.70;1.95;;;;;;;;;;2103755;28;20127;-64
2023/10/01 05:19:24;;;;;;;6.55;1.92;;;;;;;;;;2103842;28;20059;-64
2023/10/01 05:20:45;;;;;;;5.97;1.73;;;;;;;;;;2103251;28;20087;-64
2023/10/01 05:22:08;;;;;;;6.00;1.98;;;;;;;;;;2104020;28;20024;-64
2023/10/01 05:23:27;;;;;;;8.30;1.85;;;;;;;;;;2104392;28;20053;-63
2023/10/01 05:24:49;;;;;;;10.25;2.03;;;;;;;;;;2104664;28;20032;-64
2023/10/01 05:26:08;;;;;;;7.68;1.85;;;;;;;;;;2103208;28;20509;-64
2023/10/01 05:27:28;;;;;;;8.55;1.90;;;;;;;;;;2102630;28;20024;-64
2023/10/01 05:28:48;;;;;;;7.75;1.92;;;;;;;;;;2102648;28;20702;-64
2023/10/01 05:30:32;;;;;;;10.57;1.65;;;;;;;;;;2101219;28;20545;-64
2023/10/01 05:31:47;;;;;;;6.78;1.90;;;;;;;;;;2103871;28;20408;-63
2023/10/01 05:33:06;;;;;;;8.18;1.90;;;;;;;;;;2104386;28;20059;-64
2023/10/01 05:34:25;;;;;;;6.45;2.65;;;;;;;;;;2104899;28;20020;-63
2023/10/01 05:35:44;;;;;;;8.30;2.33;;;;;;;;;;2101741;28;20081;-64
2023/10/01 05:37:09;;;;;;;3.33;1.77;;;;;;;;;;2104281;28;20075;-64
2023/10/01 05:38:28;;;;;;;9.65;1.95;;;;;;;;;;2102689;28;20032;-64
2023/10/01 05:39:57;;;;;;;6.85;1.70;;;;;;;;;;2104797;28;20020;-63
2023/10/01 05:41:29;;;;;;;3.63;1.60;;;;;;;;;;2104376;28;20378;-63
2023/10/01 05:42:49;;;;;;;7.93;1.90;;;;;;;;;;2102189;28;20048;-63
2023/10/01 05:44:10;;;;;;;6.10;2.15;;;;;;;;;;2104034;28;20032;-63
2023/10/01 05:45:37;;;;;;;6.68;2.13;;;;;;;;;;2104354;28;20020;-64
2023/10/01 05:46:56;;;;;;;7.47;2.03;;;;;;;;;;2104223;28;20024;-64
2023/10/01 05:48:19;;;;;;;8.88;2.22;;;;;;;;;;2102802;28;20064;-63
2023/10/01 05:49:49;;;;;;;8.07;1.92;;;;;;;;;;2104357;28;20020;-63
2023/10/01 05:51:14;;;;;;;4.70;1.70;;;;;;;;;;2103876;28;20083;-65
2023/10/01 05:52:35;;;;;;;6.00;1.63;;;;;;;;;;2105141;28;20031;-64
2023/10/01 05:53:54;;;;;;;8.10;2.15;;;;;;;;;;2100421;28;20401;-64
2023/10/01 05:55:15;;;;;;;5.50;1.95;;;;;;;;;;2103661;28;20508;-64
2023/10/01 05:56:44;;;;;;;2.90;1.50;;;;;;;;;;2104422;28;20504;-64
2023/10/01 05:58:13;;;;;;;6.18;1.75;;;;;;;;;;2102766;28;20477;-64
2023/10/01 05:59:32;;;;;;;5.55;2.05;;;;;;;;;;2098333;28;20032;-64
2023/10/01 06:00:56;;;;;;;6.32;2.10;;;;;;;;;;2101859;28;20024;-64
2023/10/01 06:02:31;;;;;;;7.53;1.88;;;;;;;;;;2103304;28;20040;-64
2023/10/01 06:03:55;;;;;;;4.55;2.30;;;;;;;;;;2102993;28;20654;-64
2023/10/01 06:05:33;;;;;;;3.47;1.85;;;;;;;;;;2102424;28;20032;-64
2023/10/01 06:06:52;;;;;;;6.82;1.90;;;;;;;;;;2102316;28;20051;-65
2023/10/01 06:08:25;;;;;;;3.70;1.65;;;;;;;;;;2103459;28;20389;-64
2023/10/01 06:09:44;;;;;;;5.97;1.73;;;;;;;;;;2103690;28;20444;-64
2023/10/01 06:11:06;;;;;;;4.55;1.73;;;;;;;;;;2102498;28;20265;-64
2023/10/01 06:12:25;;;;;;;4.10;1.60;;;;;;;;;;2101499;28;20047;-64
2023/10/01 06:13:56;;;;;;;5.38;1.60;;;;;;;;;;2102246;28;20028;-64
2023/10/01 06:15:20;;;;;;;5.88;1.80;;;;;;;;;;2098526;28;20037;-64
2023/10/01 06:16:39;;;;;;;5.82;1.90;;;;;;;;;;2102742;28;20389;-64
2023/10/01 06:18:00;;;;;;;3.55;1.70;;;;;;;;;;2103376;28;20032;-65
2023/10/01 06:19:19;;;;;;;5.05;1.50;;;;;;;;;;2101043;28;20028;-64
2023/10/01 06:20:38;;;;;;;4.00;2.15;;;;;;;;;;2102327;28;20493;-64
2023/10/01 06:22:12;;;;;;;3.88;1.75;;;;;;;;;;2104573;28;20035;-64
2023/10/01 06:23:33;;;;;;;6.10;1.58;;;;;;;;;;2104482;28;20599;-64
2023/10/01 06:24:52;;;;;;;4.53;1.73;;;;;;;;;;2102184;28;20028;-64
2023/10/01 06:26:11;;;;;;;5.88;1.85;;;;;;;;;;2102612;28;20024;-64
2023/10/01 06:27:30;;;;;;;5.10;1.77;;;;;;;;;;2101450;28;20476;-64
2023/10/01 06:28:49;;;;;;;3.03;1.45;;;;;;;;;;2102784;28;20489;-64
2023/10/01 06:30:09;;;;;;;6.35;1.90;;;;;;;;;;2100992;28;20032;-64
2023/10/01 06:31:28;;;;;;;2.25;1.30;;;;;;;;;;2102193;28;20024;-64
2023/10/01 06:32:47;;;;;;;3.70;1.50;;;;;;;;;;2102828;28;20032;-64
2023/10/01 06:34:06;;;;;;;5.70;1.55;;;;;;;;;;2102039;28;20431;-65
2023/10/01 06:35:26;;;;;;;6.28;1.33;;;;;;;;;;2100218;28;20111;-64
2023/10/01 06:36:45;;;;;;;4.35;1.73;;;;;;;;;;2101281;28;20537;-64
2023/10/01 06:38:04;;;;;;;5.20;1.35;;;;;;;;;;2101385;28;20125;-63
2023/10/01 06:39:27;;;;;;;3.85;1.50;;;;;;;;;;2101221;28;20075;-64
2023/10/01 06:40:47;;;;;;;3.20;1.45;;;;;;;;;;2102394;28;20028;-64
2023/10/01 06:42:23;;;;;;;6.18;1.30;;;;;;;;;;2101568;28;20032;-64
2023/10/01 06:43:49;;;;;;;5.63;1.40;;;;;;;;;;2103039;28;20123;-64
2023/10/01 06:45:09;;;;;;;4.30;1.50;;;;;;;;;;2101440;28;20478;-65
2023/10/01 06:46:28;;;;;;;3.38;1.45;;;;;;;;;;2103131;28;20024;-64
2023/10/01 06:47:48;;;;;;;2.83;1.33;;;;;;;;;;2101487;28;20020;-64
2023/10/01 06:49:08;;;;;;;4.95;1.67;;;;;;;;;;2101368;28;20020;-64
2023/10/01 06:50:28;;;;;;;5.40;1.67;;;;;;;;;;2099592;28;21192;-64
2023/10/01 06:51:50;;;;;;;4.95;1.48;;;;;;;;;;2103083;28;20557;-64
2023/10/01 06:53:09;;;;;;;2.40;1.30;;;;;;;;;;2102012;28;20103;-64
2023/10/01 06:54:28;;;;;;;4.30;1.38;;;;;;;;;;2101060;28;20032;-64
2023/10/01 06:55:47;;;;;;;3.35;1.40;;;;;;;;;;2103095;28;20036;-64
2023/10/01 06:57:16;;;;;;;4.00;1.33;;;;;;;;;;2102212;28;20059;-64
2023/10/01 06:58:35;;;;;;;2.25;1.15;;;;;;;;;;2103735;28;20031;-64
2023/10/01 06:59:57;;;;;;;7.20;1.35;;;;;;;;;;2103520;28;20548;-64
2023/10/01 07:01:34;;;;;;;2.03;1.33;;;;;;;;;;2103245;28;20036;-64
2023/10/01 07:02:53;;;;;;;2.33;1.30;;;;;;;;;;2103360;28;20032;-64
2023/10/01 07:04:13;;;;;;;2.45;1.15;;;;;;;;;;2103450;28;20107;-64
2023/10/01 07:05:33;;;;;;;6.32;1.25;;;;;;;;;;2103449;28;20492;-64
2023/10/01 07:06:53;;;;;;;1.70;1.20;;;;;;;;;;2104649;28;20032;-64
2023/10/01 07:08:13;;;;;;;1.20;0.80;;;;;;;;;;2102949;28;20031;-64
2023/10/01 07:09:34;;;;;;;5.38;1.88;;;;;;;;;;2102418;28;20028;-64
2023/10/01 07:11:11;;;;;;;2.42;1.45;;;;;;;;;;2102610;28;20028;-64
2023/10/01 07:12:31;;;;;;;3.47;1.65;;;;;;;;;;2101950;28;20144;-64
2023/10/01 07:13:52;;;;;;;3.92;1.20;;;;;;;;;;2101146;28;20099;-64
2023/10/01 07:15:11;;;;;;;5.80;1.25;;;;;;;;;;2103620;28;20413;-64
2023/10/01 07:16:40;;;;;;;3.30;1.25;;;;;;;;;;2101632;28;20028;-63
2023/10/01 07:18:13;;;;;;;6.13;1.35;;;;;;;;;;2102715;28;20473;-64
2023/10/01 07:19:32;;;;;;;4.72;1.05;;;;;;;;;;2102268;28;20036;-64
2023/10/01 07:20:51;;;;;;;2.22;1.30;;;;;;;;;;2101244;28;20528;-64
2023/10/01 07:22:11;;;;;;;1.85;1.08;;;;;;;;;;2101702;28;20115;-64
2023/10/01 07:23:31;;;;;;;2.15;1.00;;;;;;;;;;2102804;28;20032;-64
2023/10/01 07:24:50;;;;;;;1.67;1.42;;;;;;;;;;2101839;28;20536;-64
2023/10/01 07:26:12;;;;;;;2.60;1.35;;;;;;;;;;2102001;28;20027;-64
2023/10/01 07:27:31;;;;;;;2.63;1.50;;;;;;;;;;2096881;28;20385;-64
2023/10/01 07:28:56;;;;;;;2.70;1.35;;;;;;;;;;2100312;28;20065;-63
2023/10/01 07:30:15;;;;;;;5.13;1.90;;;;;;;;;;2102261;28;20057;-64
2023/10/01 07:31:38;;;;;;;2.45;1.25;;;;;;;;;;2103794;28;20024;-64
2023/10/01 07:32:57;;;;;;;2.50;1.27;;;;;;;;;;2103163;28;20024;-64
2023/10/01 07:34:16;;;;;;;4.43;1.38;;;;;;;;;;2103634;28;20481;-63
2023/10/01 07:35:39;;;;;;;2.53;1.00;;;;;;;;;;2102015;28;20120;-64
2023/10/01 07:36:59;;;;;;;2.47;1.20;;;;;;;;;;2102201;28;20040;-63
2023/10/01 07:38:19;;;;;;;4.95;1.55;;;;;;;;;;2101284;28;20036;-64
2023/10/01 07:39:40;;;;;;;1.50;1.30;;;;;;;;;;2102153;28;20024;-63
2023/10/01 07:40:58;;;;;;;3.17;1.15;;;;;;;;;;2103959;28;20024;-64
2023/10/01 07:42:17;;;;;;;3.35;1.30;;;;;;;;;;2101841;28;20062;-64
2023/10/01 07:43:37;;;;;;;5.65;1.55;;;;;;;;;;2102515;28;20028;-64
2023/10/01 07:44:56;;;;;;;2.08;1.20;;;;;;;;;;2100652;28;20060;-63
2023/10/01 07:46:15;;;;;;;3.92;1.15;;;;;;;;;;2102852;28;20028;-64
2023/10/01 07:47:35;;;;;;;1.60;1.40;;;;;;;;;;2102021;28;20124;-64
2023/10/01 07:48:54;;;;;;;2.05;1.33;;;;;;;;;;2103013;28;20028;-64
2023/10/01 07:50:13;;;;;;;1.77;1.10;;;;;;;;;;2102905;28;20016;-64
2023/10/01 07:51:38;;;;;;;2.33;1.17;;;;;;;;;;2103477;28;20028;-64
2023/10/01 07:53:04;;;;;;;2.33;1.10;;;;;;;;;;2101845;28;20047;-64
2023/10/01 07:54:23;;;;;;;1.17;1.00;;;;;;;;;;2102795;28;20028;-64
2023/10/01 07:55:43;;;;;;;2.95;1.00;;;;;;;;;;2102920;28;20036;-64
2023/10/01 07:57:08;;;;;;;1.20;1.00;;;;;;;;;;2101247;28;20028;-64
2023/10/01 07:58:45;;;;;;;4.30;1.35;;;;;;;;;;2102958;28;20042;-64
2023/10/01 08:00:25;;;;;;;4.38;1.15;;;;;;;;;;2101370;28;20389;-64
2023/10/01 08:01:43;;;;;;;1.55;0.98;;;;;;;;;;2101858;28;20032;-64
2023/10/01 08:06:15;;;;;;;1.30;0.95;;;;;;;;;;2102047;28;20051;-64
2023/10/01 08:07:43;;;;;;;3.22;0.90;;;;;;;;;;2102547;28;20099;-64
2023/10/01 08:09:08;;;;;;;3.60;0.85;;;;;;;;;;2103627;28;20099;-64
2023/10/01 08:10:29;;;;;;;1.40;0.75;;;;;;;;;;2104109;28;20045;-64
2023/10/01 08:12:06;;;;;;;0.93;0.73;;;;;;;;;;2105479;28;20028;-64
2023/10/01 08:13:25;;;;;;;2.47;0.98;;;;;;;;;;2104451;28;20028;-65
2023/10/01 08:15:15;;;;;;;3.15;1.25;;;;;;;;;;2104809;28;20024;-64
2023/10/01 08:16:23;;;;;;;2.08;1.30;;;;;;;;;;2104846;28;20203;-67
2023/10/01 08:17:47;;;;;;;2.67;1.27;;;;;;;;;;2106343;28;20107;-66
2023/10/01 08:19:05;;;;;;;3.17;1.17;;;;;;;;;;2106317;28;20146;-67
2023/10/01 08:20:32;;;;;;;2.70;1.30;;;;;;;;;;2103397;28;20036;-67
2023/10/01 08:21:53;;;;;;;1.63;1.05;;;;;;;;;;2105029;28;20032;-67
2023/10/01 08:23:12;;;;;;;3.22;1.05;;;;;;;;;;2104753;28;20044;-67
2023/10/01 08:24:34;;;;;;;2.35;0.63;;;;;;;;;;2104783;28;20419;-67
2023/10/01 08:25:55;;;;;;;2.15;1.20;;;;;;;;;;2104579;28;20032;-66
2023/10/01 08:27:29;;;;;;;3.28;1.10;;;;;;;;;;2104358;28;20847;-65
2023/10/01 08:28:57;;;;;;;2.72;0.98;;;;;;;;;;2104502;28;20036;-68
2023/10/01 08:30:19;;;;;;;0.75;0.75;;;;;;;;;;2104911;28;20489;-65
2023/10/01 08:33:19;;;;;;;1.55;1.17;;;;;;;;;;2105179;28;20024;-65
2023/10/01 08:35:22;;;;;;;1.10;0.60;;;;;;;;;;2106028;28;20017;-65
2023/10/01 08:36:26;;;;;;;1.20;0.90;;;;;;;;;;2104498;28;20016;-64